createdAt,value
2023-04-14T00:01:50.233Z,7.37
2023-04-14T00:04:18.460Z,7.00
2023-04-14T00:06:46.918Z,6.87
2023-04-14T00:09:16.474Z,7.90
2023-04-14T00:11:44.515Z,6.70
2023-04-14T00:14:14.101Z,7.13
2023-04-14T00:16:43.107Z,7.60
2023-04-14T00:19:11.340Z,7.47
2023-04-14T00:21:39.558Z,7.00
2023-04-14T00:24:11.637Z,8.47
2023-04-14T00:26:43.425Z,8.30
2023-04-14T00:29:11.482Z,7.33
2023-04-14T00:31:43.543Z,7.90
2023-04-14T00:34:39.568Z,8.17
2023-04-14T00:37:07.721Z,7.90
2023-04-14T00:39:50.939Z,8.63
2023-04-14T00:42:19.117Z,8.00
2023-04-14T00:44:48.168Z,7.97
2023-04-14T00:47:19.511Z,8.37
2023-04-14T00:49:47.841Z,8.80
2023-04-14T00:52:16.386Z,7.70
2023-04-14T00:54:47.563Z,9.87
2023-04-14T00:57:16.113Z,8.13
2023-04-14T00:59:44.286Z,8.83
2023-04-14T01:02:13.799Z,9.07
2023-04-14T01:04:53.468Z,9.47
2023-04-14T01:07:23.662Z,8.40
2023-04-14T01:10:02.042Z,9.10
2023-04-14T01:12:43.091Z,8.20
2023-04-14T01:15:18.648Z,8.90
2023-04-14T01:17:58.071Z,9.03
2023-04-14T01:20:32.311Z,9.43
2023-04-14T01:23:05.802Z,9.03
2023-04-14T01:25:59.077Z,9.20
2023-04-14T01:28:43.046Z,8.57
2023-04-14T01:31:27.130Z,9.07
2023-04-14T01:34:04.385Z,9.07
2023-04-14T01:36:39.377Z,9.50
2023-04-14T01:39:12.617Z,9.63
2023-04-14T01:41:46.285Z,9.20
2023-04-14T01:44:15.854Z,9.03
2023-04-14T01:46:48.056Z,9.20
2023-04-14T01:49:17.820Z,9.33
2023-04-14T01:51:49.238Z,8.93
2023-04-14T01:54:19.497Z,9.53
2023-04-14T01:56:49.669Z,9.00
2023-04-14T01:59:20.410Z,8.87
2023-04-14T02:01:53.863Z,9.03
2023-04-14T02:04:29.041Z,8.73
2023-04-14T02:07:00.185Z,10.03
2023-04-14T02:09:30.615Z,10.40
2023-04-14T02:11:59.814Z,9.53
2023-04-14T02:14:29.026Z,9.07
2023-04-14T02:17:00.696Z,9.53
2023-04-14T02:19:30.289Z,9.30
2023-04-14T02:22:00.880Z,9.93
2023-04-14T02:24:29.139Z,9.20
2023-04-14T02:27:08.902Z,10.30
2023-04-14T02:29:42.834Z,8.77
2023-04-14T02:32:21.526Z,8.90
2023-04-14T02:34:55.659Z,8.90
2023-04-14T02:37:28.863Z,8.60
2023-04-14T02:40:02.427Z,9.03
2023-04-14T02:42:37.253Z,9.40
2023-04-14T02:45:13.524Z,8.77
2023-04-14T02:47:48.333Z,8.47
2023-04-14T02:50:19.833Z,10.33
2023-04-14T02:52:51.530Z,8.70
2023-04-14T02:55:21.776Z,9.17
2023-04-14T02:57:51.664Z,9.23
2023-04-14T03:00:21.225Z,9.70
2023-04-14T03:02:54.165Z,9.13
2023-04-14T03:05:22.789Z,9.50
2023-04-14T03:07:54.431Z,10.13
2023-04-14T03:10:24.353Z,10.03
2023-04-14T03:12:58.863Z,9.67
2023-04-14T03:15:29.702Z,10.90
2023-04-14T03:18:00.926Z,11.40
2023-04-14T03:20:30.222Z,11.80
2023-04-14T03:23:01.888Z,12.87
2023-04-14T03:25:32.005Z,12.37
2023-04-14T03:28:03.901Z,12.93
2023-04-14T03:30:35.805Z,13.90
2023-04-14T03:33:16.016Z,14.23
2023-04-14T03:35:46.301Z,14.53
2023-04-14T03:38:17.583Z,14.73
2023-04-14T03:40:48.547Z,15.20
2023-04-14T03:43:23.608Z,15.77
2023-04-14T03:45:52.336Z,17.70
2023-04-14T03:48:29.965Z,16.50
2023-04-14T03:50:59.993Z,18.40
2023-04-14T03:53:31.138Z,17.70
2023-04-14T03:56:01.035Z,19.23
2023-04-14T03:58:32.665Z,17.00
2023-04-14T04:01:03.672Z,16.80
2023-04-14T04:03:38.725Z,19.07
2023-04-14T04:06:08.902Z,18.50
2023-04-14T04:08:38.194Z,17.77
2023-04-14T04:11:13.375Z,18.80
2023-04-14T04:13:43.551Z,18.17
2023-04-14T04:16:22.345Z,20.07
2023-04-14T04:18:52.042Z,19.47
2023-04-14T04:21:22.407Z,19.07
2023-04-14T04:23:54.638Z,20.60
2023-04-14T04:26:23.877Z,21.30
2023-04-14T04:28:52.951Z,21.80
2023-04-14T04:31:23.524Z,21.43
2023-04-14T04:33:53.202Z,19.80
2023-04-14T04:36:22.165Z,21.90
2023-04-14T04:38:50.690Z,20.47
2023-04-14T04:41:25.923Z,21.60
2023-04-14T04:43:54.755Z,21.50
2023-04-14T04:46:53.321Z,20.87
2023-04-14T04:49:23.253Z,22.53
2023-04-14T04:51:51.499Z,21.50
2023-04-14T04:54:20.330Z,21.53
2023-04-14T04:56:48.547Z,21.67
2023-04-14T04:59:16.674Z,20.60
2023-04-14T05:01:46.891Z,22.30
2023-04-14T05:04:15.708Z,20.50
2023-04-14T05:06:45.401Z,22.57
2023-04-14T05:09:13.450Z,20.67
2023-04-14T05:11:45.106Z,21.50
2023-04-14T05:14:13.640Z,21.70
2023-04-14T05:16:43.278Z,21.53
2023-04-14T05:19:11.915Z,20.93
2023-04-14T05:21:40.200Z,21.63
2023-04-14T05:24:11.534Z,21.93
2023-04-14T05:29:11.793Z,19.93
2023-04-14T05:31:39.950Z,21.87
2023-04-14T05:34:08.165Z,19.57
2023-04-14T05:36:36.263Z,19.33
2023-04-14T05:39:04.434Z,19.83
2023-04-14T05:41:34.180Z,20.53
2023-04-14T05:44:03.605Z,20.60
2023-04-14T05:46:32.055Z,20.00
2023-04-14T05:49:01.535Z,19.23
2023-04-14T05:51:31.177Z,19.53
2023-04-14T05:53:59.708Z,19.00
2023-04-14T05:56:28.636Z,19.07
2023-04-14T05:58:58.077Z,16.97
2023-04-14T06:01:27.957Z,19.47
2023-04-14T06:03:56.796Z,19.03
2023-04-14T06:06:25.171Z,17.83
2023-04-14T06:08:53.281Z,17.10
2023-04-14T06:11:22.636Z,16.10
2023-04-14T06:13:50.964Z,15.53
2023-04-14T06:16:21.818Z,15.03
2023-04-14T06:18:50.373Z,16.40
2023-04-14T06:21:18.633Z,15.50
2023-04-14T06:23:47.351Z,14.90
2023-04-14T06:26:15.540Z,14.67
2023-04-14T06:28:44.070Z,15.03
2023-04-14T06:31:14.314Z,14.67
2023-04-14T06:33:44.622Z,15.33
2023-04-14T06:36:13.887Z,13.57
2023-04-14T06:38:45.143Z,13.83
2023-04-14T06:41:13.295Z,13.23
2023-04-14T06:43:42.886Z,13.80
2023-04-14T06:46:11.378Z,13.53
2023-04-14T06:48:39.600Z,12.57
2023-04-14T06:51:10.922Z,14.53
2023-04-14T06:53:39.299Z,12.80
2023-04-14T06:56:09.971Z,14.33
2023-04-14T06:58:41.119Z,13.10
2023-04-14T07:01:09.372Z,12.97
2023-04-14T07:03:37.781Z,11.97
2023-04-14T07:06:10.385Z,11.93
2023-04-14T07:08:40.698Z,11.60
2023-04-14T07:11:10.343Z,11.87
2023-04-14T07:13:39.633Z,10.70
2023-04-14T07:16:09.250Z,10.87
2023-04-14T07:18:37.526Z,10.50
2023-04-14T07:21:06.247Z,11.30
2023-04-14T07:23:36.688Z,10.30
2023-04-14T07:26:04.872Z,10.00
2023-04-14T07:28:33.659Z,9.80
2023-04-14T07:31:10.036Z,9.13
2023-04-14T07:33:38.921Z,9.10
2023-04-14T07:36:08.111Z,9.47
2023-04-14T07:38:39.336Z,8.50
2023-04-14T07:41:08.444Z,9.50
2023-04-14T07:43:37.104Z,10.87
2023-04-14T07:46:06.744Z,11.10
2023-04-14T07:48:35.988Z,10.80
2023-04-14T07:51:07.805Z,10.83
2023-04-14T07:53:42.352Z,10.73
2023-04-14T07:56:20.068Z,10.77
2023-04-14T07:58:48.311Z,11.73
2023-04-14T08:01:17.086Z,10.37
2023-04-14T08:03:45.686Z,10.33
2023-04-14T08:06:14.477Z,11.23
2023-04-14T08:08:44.133Z,10.17
2023-04-14T08:11:15.487Z,11.23
2023-04-14T08:13:47.869Z,10.50
2023-04-14T08:16:17.912Z,10.80
2023-04-14T08:18:46.685Z,10.47
2023-04-14T08:21:15.345Z,11.00
2023-04-14T08:23:44.919Z,12.00
2023-04-14T08:26:13.746Z,11.13
2023-04-14T08:28:41.994Z,11.03
2023-04-14T08:31:10.762Z,11.20
2023-04-14T08:33:38.998Z,10.43
2023-04-14T08:36:12.008Z,10.77
2023-04-14T08:38:40.724Z,10.73
2023-04-14T08:41:11.292Z,11.00
2023-04-14T08:43:39.474Z,10.10
2023-04-14T08:46:11.120Z,9.70
2023-04-14T08:48:40.950Z,10.63
2023-04-14T08:51:20.304Z,10.80
2023-04-14T08:53:49.643Z,10.57
2023-04-14T08:56:23.085Z,9.50
2023-04-14T08:58:51.933Z,8.53
2023-04-14T09:01:20.888Z,9.53
2023-04-14T09:03:50.141Z,9.77
2023-04-14T09:06:19.852Z,10.27
2023-04-14T09:08:48.330Z,8.83
2023-04-14T09:11:17.382Z,9.07
2023-04-14T09:13:47.840Z,8.47
2023-04-14T09:16:18.561Z,8.30
2023-04-14T09:18:47.578Z,8.70
2023-04-14T09:21:50.856Z,7.80
2023-04-14T09:24:30.258Z,8.13
2023-04-14T09:26:59.543Z,6.87
2023-04-14T09:29:29.538Z,7.23
2023-04-14T09:31:58.102Z,6.47
2023-04-14T09:34:26.722Z,6.60
2023-04-14T09:37:03.583Z,5.53
2023-04-14T09:39:32.266Z,6.73
2023-04-14T09:42:00.611Z,6.20
2023-04-14T09:44:32.045Z,5.17
2023-04-14T09:47:05.809Z,4.30
2023-04-14T09:49:34.764Z,4.17
2023-04-14T09:52:05.907Z,4.30
2023-04-14T09:54:34.223Z,4.57
2023-04-14T09:57:03.250Z,4.50
2023-04-14T09:59:35.089Z,3.70
2023-04-14T10:02:06.833Z,4.57
2023-04-14T10:04:36.746Z,4.10
2023-04-14T10:07:07.979Z,4.10
2023-04-14T10:09:38.606Z,4.77
2023-04-14T10:12:14.853Z,4.50
2023-04-14T10:14:45.589Z,5.20
2023-04-14T10:17:14.862Z,3.93
2023-04-14T10:19:43.000Z,4.27
2023-04-14T10:22:11.613Z,4.33
2023-04-14T10:24:41.760Z,4.70
2023-04-14T10:27:09.994Z,4.47
2023-04-14T10:29:41.169Z,4.77
2023-04-14T10:32:12.207Z,4.30
2023-04-14T10:34:54.848Z,4.73
2023-04-14T10:37:23.601Z,4.37
2023-04-14T10:39:57.057Z,5.27
2023-04-14T10:42:25.440Z,4.40
2023-04-14T10:45:07.826Z,4.70
2023-04-14T10:47:42.001Z,4.80
2023-04-14T10:50:14.846Z,4.70
2023-04-14T10:52:51.238Z,4.87
2023-04-14T10:55:24.617Z,5.03
2023-04-14T10:57:54.649Z,5.63
2023-04-14T11:00:25.197Z,5.37
2023-04-14T11:03:00.429Z,5.13
2023-04-14T11:05:28.691Z,5.07
2023-04-14T11:08:01.460Z,5.33
2023-04-14T11:10:33.853Z,5.03
2023-04-14T11:13:07.244Z,4.97
2023-04-14T11:15:51.791Z,4.90
2023-04-14T11:18:34.011Z,4.70
2023-04-14T11:21:06.845Z,5.20
2023-04-14T11:23:36.597Z,4.37
2023-04-14T11:26:07.136Z,5.03
2023-04-14T11:28:46.359Z,4.90
2023-04-14T11:31:16.913Z,4.83
2023-04-14T11:33:46.828Z,5.73
2023-04-14T11:36:15.670Z,4.83
2023-04-14T11:38:45.837Z,5.37
2023-04-14T11:41:16.800Z,4.37
2023-04-14T11:43:48.993Z,4.80
2023-04-14T11:46:20.676Z,4.40
2023-04-14T11:48:55.603Z,4.77
2023-04-14T11:51:30.743Z,3.93
2023-04-14T11:54:01.526Z,5.37
2023-04-14T11:56:32.387Z,5.27
2023-04-14T11:59:02.161Z,4.80
2023-04-14T12:01:31.219Z,4.80
2023-04-14T12:04:01.480Z,4.67
2023-04-14T12:06:29.897Z,4.07
2023-04-14T12:09:03.619Z,5.00
2023-04-14T12:11:31.831Z,4.27
2023-04-14T12:13:59.998Z,4.80
2023-04-14T12:16:28.286Z,5.73
2023-04-14T12:18:58.505Z,4.43
2023-04-14T12:21:28.092Z,3.80
2023-04-14T12:23:56.470Z,4.50
2023-04-14T12:26:27.125Z,4.00
2023-04-14T12:28:58.960Z,4.97
2023-04-14T12:31:31.357Z,5.13
2023-04-14T12:34:04.319Z,4.50
2023-04-14T12:36:48.843Z,4.70
2023-04-14T12:39:18.770Z,4.57
2023-04-14T12:41:49.885Z,5.00
2023-04-14T12:44:19.810Z,4.10
2023-04-14T12:46:55.363Z,5.63
2023-04-14T12:49:37.891Z,4.40
2023-04-14T12:52:08.647Z,4.90
2023-04-14T12:54:51.921Z,4.50
2023-04-14T12:57:21.778Z,4.37
2023-04-14T12:59:50.559Z,4.80
2023-04-14T13:02:18.881Z,4.80
2023-04-14T13:04:49.830Z,4.73
2023-04-14T13:07:20.849Z,3.70
2023-04-14T13:09:49.199Z,4.30
2023-04-14T13:12:17.493Z,4.30
2023-04-14T13:14:45.882Z,5.23
2023-04-14T13:17:15.967Z,4.67
2023-04-14T13:19:45.905Z,4.50
2023-04-14T13:22:14.533Z,4.30
2023-04-14T13:24:44.716Z,4.73
2023-04-14T13:27:12.928Z,4.30
2023-04-14T13:29:42.621Z,4.50
2023-04-14T13:32:13.559Z,4.50
2023-04-14T13:34:43.548Z,4.80
2023-04-14T13:37:11.828Z,4.30
2023-04-14T13:39:40.204Z,4.50
2023-04-14T13:42:18.690Z,4.73
2023-04-14T13:44:48.127Z,5.37
2023-04-14T13:47:19.146Z,4.87
2023-04-14T13:49:47.365Z,4.50
2023-04-14T13:52:15.712Z,4.67
2023-04-14T13:54:44.262Z,3.50
2023-04-14T13:57:12.800Z,4.40
2023-04-14T13:59:43.089Z,4.20
2023-04-14T14:02:11.526Z,4.40
2023-04-14T14:04:39.766Z,5.03
2023-04-14T14:07:08.000Z,4.10
2023-04-14T14:09:36.120Z,4.50
2023-04-14T14:12:05.191Z,4.07
2023-04-14T14:14:33.355Z,4.13
2023-04-14T14:17:02.890Z,4.60
2023-04-14T14:19:30.974Z,4.27
2023-04-14T14:21:59.186Z,5.17
2023-04-14T14:24:27.404Z,4.73
2023-04-14T14:26:56.690Z,4.20
2023-04-14T14:29:24.869Z,4.43
2023-04-14T14:31:53.152Z,3.73
2023-04-14T14:34:22.891Z,4.03
2023-04-14T14:36:51.056Z,4.03
2023-04-14T14:39:19.822Z,4.10
2023-04-14T14:41:49.718Z,4.17
2023-04-14T14:44:18.510Z,4.50
2023-04-14T14:46:47.320Z,4.23
2023-04-14T14:49:15.691Z,4.00
2023-04-14T14:51:45.520Z,3.63
2023-04-14T14:54:13.970Z,4.10
2023-04-14T14:56:42.268Z,4.30
2023-04-14T14:59:10.595Z,4.17
2023-04-14T15:01:38.778Z,4.00
2023-04-14T15:04:07.786Z,4.00
2023-04-14T15:06:37.395Z,4.00
2023-04-14T15:09:07.628Z,3.77
2023-04-14T15:11:35.932Z,4.27
2023-04-14T15:14:04.333Z,3.97
2023-04-14T15:16:33.033Z,4.77
2023-04-14T15:19:01.260Z,4.00
2023-04-14T15:21:29.414Z,4.80
2023-04-14T15:23:57.483Z,4.10
2023-04-14T15:26:27.347Z,4.53
2023-04-14T15:28:55.485Z,3.63
2023-04-14T15:31:23.782Z,3.80
2023-04-14T15:33:52.510Z,4.23
2023-04-14T15:36:21.654Z,4.90
2023-04-14T15:38:50.780Z,4.27
2023-04-14T15:41:19.141Z,4.30
2023-04-14T15:43:50.744Z,4.33
2023-04-14T15:46:20.345Z,4.57
2023-04-14T15:48:48.499Z,4.30
2023-04-14T15:51:16.667Z,5.17
2023-04-14T15:53:44.743Z,4.37
2023-04-14T15:56:13.093Z,4.20
2023-04-14T15:58:41.537Z,4.20
2023-04-14T16:01:11.065Z,3.73
2023-04-14T16:03:39.246Z,4.63
2023-04-14T16:06:08.284Z,4.07
2023-04-14T16:08:36.422Z,5.17
2023-04-14T16:11:04.989Z,4.23
2023-04-14T16:13:33.202Z,4.90
2023-04-14T16:16:01.354Z,4.27
2023-04-14T16:18:31.168Z,4.27
2023-04-14T16:20:59.341Z,4.53
2023-04-14T16:23:30.548Z,4.83
2023-04-14T16:25:58.749Z,4.83
2023-04-14T16:28:27.259Z,4.63
2023-04-14T16:30:55.493Z,4.13
2023-04-14T16:33:24.667Z,4.47
2023-04-14T16:35:54.107Z,4.93
2023-04-14T16:38:24.361Z,4.60
2023-04-14T16:40:57.410Z,4.17
2023-04-14T16:43:28.071Z,4.33
2023-04-14T16:46:02.190Z,3.87
2023-04-14T16:48:30.820Z,4.00
2023-04-14T16:51:05.810Z,4.30
2023-04-14T16:53:34.735Z,3.40
2023-04-14T16:56:07.308Z,3.77
2023-04-14T16:58:36.602Z,4.20
2023-04-14T17:01:06.150Z,3.90
2023-04-14T17:03:34.803Z,4.80
2023-04-14T17:06:04.983Z,3.70
2023-04-14T17:08:33.757Z,3.47
2023-04-14T17:11:02.293Z,4.67
2023-04-14T17:13:30.798Z,4.33
2023-04-14T17:16:08.110Z,4.03
2023-04-14T17:18:37.739Z,4.70
2023-04-14T17:21:07.797Z,4.10
2023-04-14T17:23:37.135Z,4.23
2023-04-14T17:26:05.841Z,4.33
2023-04-14T17:28:35.070Z,4.50
2023-04-14T17:31:05.091Z,4.00
2023-04-14T17:33:33.481Z,4.80
2023-04-14T17:36:01.754Z,3.93
2023-04-14T17:38:34.914Z,4.30
2023-04-14T17:41:04.467Z,4.10
2023-04-14T17:43:32.775Z,4.20
2023-04-14T17:46:00.919Z,4.00
2023-04-14T17:48:29.370Z,4.30
2023-04-14T17:50:57.446Z,4.00
2023-04-14T17:53:25.659Z,3.93
2023-04-14T17:55:56.104Z,4.27
2023-04-14T17:58:26.393Z,4.13
2023-04-14T18:00:54.878Z,4.10
2023-04-14T18:03:23.467Z,4.17
2023-04-14T18:05:51.961Z,4.53
2023-04-14T18:08:20.520Z,3.70
2023-04-14T18:10:48.738Z,3.73
2023-04-14T18:13:18.347Z,4.70
2023-04-14T18:15:47.952Z,4.10
2023-04-14T18:18:18.605Z,3.93
2023-04-14T18:20:46.908Z,4.23
2023-04-14T18:23:15.489Z,4.50
2023-04-14T18:28:14.888Z,4.27
2023-04-14T18:30:44.450Z,4.17
2023-04-14T18:33:13.109Z,3.97
2023-04-14T18:35:41.741Z,4.33
2023-04-14T18:38:09.850Z,3.97
2023-04-14T18:40:41.759Z,3.83
2023-04-14T18:43:11.268Z,3.87
2023-04-14T18:45:39.379Z,4.00
2023-04-14T18:48:10.183Z,4.13
2023-04-14T18:50:38.252Z,3.93
2023-04-14T18:53:06.723Z,3.83
2023-04-14T18:55:45.088Z,4.10
2023-04-14T18:58:24.644Z,4.60
2023-04-14T19:00:52.780Z,4.20
2023-04-14T19:03:23.782Z,5.03
2023-04-14T19:05:53.025Z,5.27
2023-04-14T19:08:21.653Z,4.73
2023-04-14T19:10:50.060Z,4.13
2023-04-14T19:13:19.003Z,4.80
2023-04-14T19:15:47.154Z,4.60
2023-04-14T19:18:16.898Z,5.30
2023-04-14T19:20:47.700Z,4.87
2023-04-14T19:23:15.897Z,4.60
2023-04-14T19:25:44.136Z,4.90
2023-04-14T19:28:16.702Z,4.33
2023-04-14T19:30:45.923Z,4.80
2023-04-14T19:33:15.599Z,4.93
2023-04-14T19:35:45.327Z,5.43
2023-04-14T19:38:15.677Z,5.10
2023-04-14T19:40:48.968Z,4.70
2023-04-14T19:43:19.615Z,5.17
2023-04-14T19:45:52.290Z,5.37
2023-04-14T19:48:23.760Z,4.73
2023-04-14T19:50:53.343Z,4.70
2023-04-14T19:53:23.714Z,5.77
2023-04-14T19:55:53.631Z,4.47
2023-04-14T19:58:22.185Z,4.80
2023-04-14T20:00:52.742Z,5.13
2023-04-14T20:03:21.297Z,5.23
2023-04-14T20:05:52.767Z,4.93
2023-04-14T20:08:22.966Z,4.73
2023-04-14T20:10:54.117Z,4.87
2023-04-14T20:13:23.836Z,5.00
2023-04-14T20:15:55.132Z,4.47
2023-04-14T20:18:23.778Z,5.70
2023-04-14T20:20:52.789Z,5.00
2023-04-14T20:23:23.322Z,4.93
2023-04-14T20:25:51.754Z,4.70
2023-04-14T20:28:23.238Z,5.03
2023-04-14T20:30:53.812Z,4.77
2023-04-14T20:33:23.014Z,4.70
2023-04-14T20:35:54.226Z,4.70
2023-04-14T20:38:24.292Z,5.60
2023-04-14T20:40:53.719Z,5.63
2023-04-14T20:43:23.481Z,5.50
2023-04-14T20:45:53.339Z,4.83
2023-04-14T20:48:21.925Z,4.90
2023-04-14T20:50:50.852Z,4.40
2023-04-14T20:53:22.103Z,5.03
2023-04-14T20:55:52.600Z,4.70
2023-04-14T20:58:21.082Z,5.17
2023-04-14T21:00:49.207Z,5.27
2023-04-14T21:03:17.421Z,4.70
2023-04-14T21:05:46.368Z,4.97
2023-04-14T21:08:20.013Z,4.93
2023-04-14T21:11:16.319Z,5.97
2023-04-14T21:15:26.846Z,4.30
2023-04-14T21:16:26.015Z,5.37
2023-04-14T21:18:54.097Z,5.13
2023-04-14T21:21:22.528Z,4.77
2023-04-14T21:23:50.875Z,4.83
2023-04-14T21:26:21.171Z,4.93
2023-04-14T21:28:50.968Z,5.03
2023-04-14T21:31:19.076Z,4.63
2023-04-14T21:33:47.353Z,5.40
2023-04-14T21:36:15.733Z,5.00
2023-04-14T21:38:43.830Z,4.47
2023-04-14T21:41:12.204Z,4.67
2023-04-14T21:43:40.685Z,5.00
2023-04-14T21:46:10.751Z,5.13
2023-04-14T21:48:38.910Z,5.43
2023-04-14T21:51:07.708Z,5.40
2023-04-14T21:53:37.575Z,5.00
2023-04-14T21:56:09.398Z,5.27
2023-04-14T21:58:39.251Z,4.97
2023-04-14T22:01:09.987Z,4.50
2023-04-14T22:03:47.797Z,4.70
2023-04-14T22:06:16.188Z,5.20
2023-04-14T22:08:44.365Z,4.77
2023-04-14T22:11:13.141Z,5.43
2023-04-14T22:13:41.327Z,4.53
2023-04-14T22:16:11.458Z,4.70
2023-04-14T22:18:41.652Z,4.73
2023-04-14T22:21:12.374Z,5.13
2023-04-14T22:23:41.407Z,4.90
2023-04-14T22:26:22.502Z,5.03
2023-04-14T22:28:50.723Z,5.50
2023-04-14T22:31:19.104Z,4.37
2023-04-14T22:33:48.761Z,4.63
2023-04-14T22:36:17.587Z,4.80
2023-04-14T22:38:48.479Z,4.90
2023-04-14T22:41:17.367Z,4.67
2023-04-14T22:43:47.459Z,4.83
2023-04-14T22:46:17.697Z,4.87
2023-04-14T22:48:46.362Z,5.20
2023-04-14T22:51:16.831Z,4.40
2023-04-14T22:53:44.943Z,5.40
2023-04-14T22:56:13.339Z,5.00
2023-04-14T22:58:41.724Z,4.77
2023-04-14T23:01:21.487Z,5.37
2023-04-14T23:03:52.872Z,4.40
2023-04-14T23:06:24.241Z,4.90
2023-04-14T23:08:52.493Z,5.50
2023-04-14T23:11:21.403Z,5.33
2023-04-14T23:13:50.488Z,5.03
2023-04-14T23:16:20.050Z,5.07
2023-04-14T23:18:52.043Z,5.00
2023-04-14T23:21:25.347Z,6.50
2023-04-14T23:23:53.542Z,5.07
2023-04-14T23:26:24.188Z,5.13
2023-04-14T23:28:53.124Z,5.07
2023-04-14T23:31:21.927Z,5.20
2023-04-14T23:33:53.009Z,4.83
2023-04-14T23:36:25.963Z,5.93
2023-04-14T23:38:55.787Z,5.10
2023-04-14T23:41:24.378Z,4.53
2023-04-14T23:43:53.993Z,5.97
2023-04-14T23:46:22.452Z,6.43
2023-04-14T23:48:51.667Z,4.37
2023-04-14T23:51:25.240Z,6.23
2023-04-14T23:53:53.489Z,5.47
2023-04-14T23:56:23.085Z,5.87
2023-04-14T23:58:52.120Z,5.30
